Accueil
METAR-TAF:

METAR-TAF

Aéroports :

Dansville Municipal Airport

Dansville, New York, États-Unis

latitude: 42-34-10N, longitude: 077-42-52W, altitude: 201 m

Observation

Le bulletin a été fait il y a 35 minutes, à 19:54 UTC
Vent 4 kt de direction variable
Température 26°C
Humidité 61%
Pression 1001 hPa
Visibilité: 16.1 km
Quelques nuages à une hauteur de 3300 ft
Ciel couvert à une hauteur de 5000 ft

METAR: KDSV 111954Z AUTO VRB04KT 10SM FEW033 OVC050 26/18 A2955 RMK AO2 RAB35E44 SLP010 P0000 T02610183

Heure: 16:29 (20:29 UTC)


TAF: absent

Observations et prévisions météorologiques de plus de 4000 aéroports (messages METAR et TAF).

Les stations disponibles sont représentées par des disques jaunes et rouges sur la carte.

Passer la souris dessus pour voir le nom de la station.

Cliquer dessus pour voir les observations et prévisions météorologiques.

Pour changer de carte: cliquez sur les boutons verts avec une croix noire pour zoomer, sur le bouton vert avec un tiret pour effectuer un zoom arrière, ou sur les flèches vertes pour les cartes adjacentes.


METAR-TAF: